Terminal Aerodrome Forecast
Issued by NWS

Home | Current Version | Previous Version | Text Only | Print | Product List | Glossary On
Versions: 1 2 3 4 5 6 7 8 9 10 11 12
000
FTUS43 KBIS 200532
TAFJMS
TAF
KJMS 200532Z 2006/2106 27007KT P6SM OVC130
     FM200900 27006KT P6SM BKN090 OVC120
     FM201400 28005KT P6SM BKN160
     FM201800 28007KT P6SM SCT200=

USA.gov is the U.S. government's official web portal to all federal, state and local government web resources and services.